sensor_id;sensor_type;location;lat;lon;timestamp;pressure;altitude;pressure_sealevel;temperature;humidity
58223;BME280;44020;50.890;15.796;2023-10-08T00:01:21;97497.02;;;15.62;99.80
58223;BME280;44020;50.890;15.796;2023-10-08T00:03:58;97493.98;;;15.62;99.97
58223;BME280;44020;50.890;15.796;2023-10-08T00:06:27;97491.59;;;15.61;100.00
58223;BME280;44020;50.890;15.796;2023-10-08T00:08:55;97491.88;;;15.60;100.00
58223;BME280;44020;50.890;15.796;2023-10-08T00:11:27;97496.15;;;15.58;100.00
58223;BME280;44020;50.890;15.796;2023-10-08T00:13:56;97498.31;;;15.58;100.00
58223;BME280;44020;50.890;15.796;2023-10-08T00:16:32;97504.13;;;15.57;100.00
58223;BME280;44020;50.890;15.796;2023-10-08T00:19:00;97505.40;;;15.55;100.00
58223;BME280;44020;50.890;15.796;2023-10-08T00:21:36;97504.49;;;15.54;100.00
58223;BME280;44020;50.890;15.796;2023-10-08T00:24:05;97499.84;;;15.48;100.00
58223;BME280;44020;50.890;15.796;2023-10-08T00:26:36;97494.94;;;15.45;100.00
58223;BME280;44020;50.890;15.796;2023-10-08T00:29:15;97490.13;;;15.43;100.00
58223;BME280;44020;50.890;15.796;2023-10-08T00:32:05;97489.25;;;15.42;100.00
58223;BME280;44020;50.890;15.796;2023-10-08T00:34:42;97490.59;;;15.38;100.00
58223;BME280;44020;50.890;15.796;2023-10-08T00:37:15;97489.98;;;15.37;100.00
58223;BME280;44020;50.890;15.796;2023-10-08T00:39:51;97487.80;;;15.36;100.00
58223;BME280;44020;50.890;15.796;2023-10-08T00:42:18;97490.41;;;15.36;100.00
58223;BME280;44020;50.890;15.796;2023-10-08T00:45:14;97489.10;;;15.33;100.00
58223;BME280;44020;50.890;15.796;2023-10-08T00:47:51;97484.49;;;15.28;100.00
58223;BME280;44020;50.890;15.796;2023-10-08T00:50:52;97485.12;;;15.28;100.00
58223;BME280;44020;50.890;15.796;2023-10-08T00:53:22;97482.80;;;15.21;100.00
58223;BME280;44020;50.890;15.796;2023-10-08T00:55:50;97477.42;;;15.17;100.00
58223;BME280;44020;50.890;15.796;2023-10-08T00:58:21;97469.30;;;15.14;100.00
58223;BME280;44020;50.890;15.796;2023-10-08T01:00:55;97471.98;;;15.13;100.00
58223;BME280;44020;50.890;15.796;2023-10-08T01:03:32;97469.95;;;15.09;100.00
58223;BME280;44020;50.890;15.796;2023-10-08T01:06:06;97481.02;;;15.06;100.00
58223;BME280;44020;50.890;15.796;2023-10-08T01:08:38;97482.19;;;14.97;100.00
58223;BME280;44020;50.890;15.796;2023-10-08T01:20:14;97528.74;;;13.97;100.00
58223;BME280;44020;50.890;15.796;2023-10-08T01:23:10;97538.40;;;13.81;100.00
58223;BME280;44020;50.890;15.796;2023-10-08T01:25:44;97550.27;;;13.69;100.00
58223;BME280;44020;50.890;15.796;2023-10-08T01:28:30;97554.89;;;13.51;100.00
58223;BME280;44020;50.890;15.796;2023-10-08T01:31:07;97555.79;;;13.36;100.00
58223;BME280;44020;50.890;15.796;2023-10-08T01:40:23;97563.55;;;12.98;100.00
58223;BME280;44020;50.890;15.796;2023-10-08T01:43:22;97564.70;;;12.90;100.00
58223;BME280;44020;50.890;15.796;2023-10-08T01:46:02;97579.91;;;12.90;100.00
58223;BME280;44020;50.890;15.796;2023-10-08T01:51:45;97585.24;;;12.88;100.00
58223;BME280;44020;50.890;15.796;2023-10-08T01:54:14;97592.65;;;12.86;100.00
58223;BME280;44020;50.890;15.796;2023-10-08T01:57:01;97601.95;;;12.84;100.00
58223;BME280;44020;50.890;15.796;2023-10-08T01:59:41;97598.14;;;12.83;100.00
58223;BME280;44020;50.890;15.796;2023-10-08T02:05:10;97632.58;;;12.78;100.00
58223;BME280;44020;50.890;15.796;2023-10-08T02:07:58;97648.48;;;12.76;100.00
58223;BME280;44020;50.890;15.796;2023-10-08T02:13:51;97669.55;;;12.73;100.00
58223;BME280;44020;50.890;15.796;2023-10-08T02:16:22;97668.30;;;12.73;100.00
58223;BME280;44020;50.890;15.796;2023-10-08T02:22:15;97683.11;;;12.72;100.00
58223;BME280;44020;50.890;15.796;2023-10-08T02:24:52;97684.64;;;12.71;100.00
58223;BME280;44020;50.890;15.796;2023-10-08T02:27:30;97680.76;;;12.70;100.00
58223;BME280;44020;50.890;15.796;2023-10-08T02:30:13;97690.16;;;12.68;100.00
58223;BME280;44020;50.890;15.796;2023-10-08T02:32:53;97694.42;;;12.65;100.00
58223;BME280;44020;50.890;15.796;2023-10-08T02:35:23;97699.73;;;12.63;100.00
58223;BME280;44020;50.890;15.796;2023-10-08T02:37:53;97705.73;;;12.57;100.00
58223;BME280;44020;50.890;15.796;2023-10-08T02:40:47;97708.33;;;12.54;100.00
58223;BME280;44020;50.890;15.796;2023-10-08T02:43:56;97712.54;;;12.49;100.00
58223;BME280;44020;50.890;15.796;2023-10-08T02:46:34;97712.44;;;12.42;100.00
58223;BME280;44020;50.890;15.796;2023-10-08T02:49:10;97716.70;;;12.37;100.00
58223;BME280;44020;50.890;15.796;2023-10-08T02:51:44;97713.41;;;12.34;100.00
58223;BME280;44020;50.890;15.796;2023-10-08T03:00:32;97730.17;;;12.26;100.00
58223;BME280;44020;50.890;15.796;2023-10-08T03:03:02;97735.27;;;12.25;100.00
58223;BME280;44020;50.890;15.796;2023-10-08T03:05:39;97736.03;;;12.22;100.00
58223;BME280;44020;50.890;15.796;2023-10-08T03:08:06;97740.50;;;12.19;100.00
58223;BME280;44020;50.890;15.796;2023-10-08T03:10:52;97745.30;;;12.13;100.00
58223;BME280;44020;50.890;15.796;2023-10-08T03:13:36;97753.73;;;12.07;100.00
58223;BME280;44020;50.890;15.796;2023-10-08T03:16:15;97758.27;;;11.99;100.00
58223;BME280;44020;50.890;15.796;2023-10-08T03:18:42;97772.23;;;11.93;100.00
58223;BME280;44020;50.890;15.796;2023-10-08T03:21:25;97782.96;;;11.85;100.00
58223;BME280;44020;50.890;15.796;2023-10-08T03:24:25;97789.69;;;11.76;100.00
58223;BME280;44020;50.890;15.796;2023-10-08T03:27:21;97798.61;;;11.71;100.00
58223;BME280;44020;50.890;15.796;2023-10-08T03:29:53;97805.14;;;11.64;100.00
58223;BME280;44020;50.890;15.796;2023-10-08T03:35:28;97845.23;;;11.48;100.00
58223;BME280;44020;50.890;15.796;2023-10-08T03:37:56;97842.20;;;11.34;100.00
58223;BME280;44020;50.890;15.796;2023-10-08T03:40:47;97849.16;;;11.16;100.00
58223;BME280;44020;50.890;15.796;2023-10-08T03:43:34;97859.80;;;10.95;100.00
58223;BME280;44020;50.890;15.796;2023-10-08T03:46:11;97879.08;;;10.84;100.00
58223;BME280;44020;50.890;15.796;2023-10-08T03:48:57;97879.64;;;10.73;100.00
58223;BME280;44020;50.890;15.796;2023-10-08T03:51:56;97879.19;;;10.72;100.00
58223;BME280;44020;50.890;15.796;2023-10-08T03:57:05;97903.69;;;10.72;100.00
58223;BME280;44020;50.890;15.796;2023-10-08T03:59:45;97915.49;;;10.69;100.00
58223;BME280;44020;50.890;15.796;2023-10-08T04:02:45;97928.16;;;10.68;100.00
58223;BME280;44020;50.890;15.796;2023-10-08T04:05:32;97945.05;;;10.60;99.88
58223;BME280;44020;50.890;15.796;2023-10-08T04:08:11;97943.84;;;10.56;99.94
58223;BME280;44020;50.890;15.796;2023-10-08T04:10:44;97940.79;;;10.54;99.65
58223;BME280;44020;50.890;15.796;2023-10-08T04:13:35;97931.32;;;10.53;99.42
58223;BME280;44020;50.890;15.796;2023-10-08T04:16:11;97924.50;;;10.45;99.23
58223;BME280;44020;50.890;15.796;2023-10-08T04:18:39;97927.39;;;10.39;99.01
58223;BME280;44020;50.890;15.796;2023-10-08T04:21:17;97926.34;;;10.34;98.60
58223;BME280;44020;50.890;15.796;2023-10-08T04:23:57;97929.86;;;10.29;98.59
58223;BME280;44020;50.890;15.796;2023-10-08T04:26:28;97927.66;;;10.27;98.77
58223;BME280;44020;50.890;15.796;2023-10-08T04:29:07;97931.05;;;10.26;98.80
58223;BME280;44020;50.890;15.796;2023-10-08T04:31:43;97938.22;;;10.26;98.50
58223;BME280;44020;50.890;15.796;2023-10-08T04:34:20;97946.80;;;10.25;98.58
58223;BME280;44020;50.890;15.796;2023-10-08T04:39:54;97954.64;;;10.18;98.15
58223;BME280;44020;50.890;15.796;2023-10-08T04:42:28;97952.96;;;10.12;98.55
58223;BME280;44020;50.890;15.796;2023-10-08T04:44:59;97959.58;;;10.08;98.72
58223;BME280;44020;50.890;15.796;2023-10-08T04:47:26;97970.16;;;10.06;98.79
58223;BME280;44020;50.890;15.796;2023-10-08T04:50:00;97969.11;;;10.00;98.81
58223;BME280;44020;50.890;15.796;2023-10-08T04:52:45;97969.20;;;9.99;98.91
58223;BME280;44020;50.890;15.796;2023-10-08T04:55:44;97966.17;;;9.96;99.03
58223;BME280;44020;50.890;15.796;2023-10-08T04:58:15;97970.25;;;9.94;99.20
58223;BME280;44020;50.890;15.796;2023-10-08T05:04:48;97987.82;;;9.94;99.24
58223;BME280;44020;50.890;15.796;2023-10-08T05:07:49;97991.07;;;9.96;99.38
58223;BME280;44020;50.890;15.796;2023-10-08T05:10:44;97996.52;;;9.96;99.33
58223;BME280;44020;50.890;15.796;2023-10-08T05:13:23;97991.73;;;9.97;99.23
58223;BME280;44020;50.890;15.796;2023-10-08T05:16:43;97992.92;;;9.95;99.37
58223;BME280;44020;50.890;15.796;2023-10-08T05:19:54;97997.55;;;9.94;99.12
58223;BME280;44020;50.890;15.796;2023-10-08T05:22:53;98000.18;;;9.92;99.30
58223;BME280;44020;50.890;15.796;2023-10-08T05:25:33;98003.12;;;9.93;99.49
58223;BME280;44020;50.890;15.796;2023-10-08T05:32:25;98003.77;;;9.94;99.60
58223;BME280;44020;50.890;15.796;2023-10-08T05:35:13;98017.52;;;9.93;99.44
58223;BME280;44020;50.890;15.796;2023-10-08T05:37:59;98034.06;;;9.92;99.69
58223;BME280;44020;50.890;15.796;2023-10-08T05:40:59;98037.38;;;9.91;99.41
58223;BME280;44020;50.890;15.796;2023-10-08T05:43:37;98042.71;;;9.90;99.67
58223;BME280;44020;50.890;15.796;2023-10-08T05:46:07;98050.48;;;9.91;99.49
58223;BME280;44020;50.890;15.796;2023-10-08T05:49:38;98042.81;;;9.89;99.41
58223;BME280;44020;50.890;15.796;2023-10-08T05:52:28;98056.30;;;9.89;99.52
58223;BME280;44020;50.890;15.796;2023-10-08T05:58:36;98073.11;;;9.89;99.51
58223;BME280;44020;50.890;15.796;2023-10-08T06:01:12;98078.90;;;9.91;99.62
58223;BME280;44020;50.890;15.796;2023-10-08T06:03:58;98077.13;;;9.93;99.76
58223;BME280;44020;50.890;15.796;2023-10-08T06:09:39;98076.38;;;9.94;99.53
58223;BME280;44020;50.890;15.796;2023-10-08T06:12:19;98069.41;;;9.95;99.60
58223;BME280;44020;50.890;15.796;2023-10-08T06:14:56;98069.33;;;9.93;99.60
58223;BME280;44020;50.890;15.796;2023-10-08T06:18:05;98083.19;;;9.93;99.63
58223;BME280;44020;50.890;15.796;2023-10-08T06:20:37;98088.23;;;9.92;99.83
58223;BME280;44020;50.890;15.796;2023-10-08T06:23:29;98084.58;;;9.93;99.89
58223;BME280;44020;50.890;15.796;2023-10-08T06:26:05;98086.36;;;9.96;99.91
58223;BME280;44020;50.890;15.796;2023-10-08T06:28:44;98089.34;;;9.97;99.95
58223;BME280;44020;50.890;15.796;2023-10-08T06:31:33;98097.80;;;10.01;100.00
58223;BME280;44020;50.890;15.796;2023-10-08T06:34:02;98106.28;;;10.01;99.95
58223;BME280;44020;50.890;15.796;2023-10-08T06:36:30;98110.01;;;10.01;100.00
58223;BME280;44020;50.890;15.796;2023-10-08T06:38:57;98106.36;;;10.03;99.99
58223;BME280;44020;50.890;15.796;2023-10-08T06:42:08;98114.95;;;10.05;99.93
58223;BME280;44020;50.890;15.796;2023-10-08T06:45:08;98138.61;;;10.04;99.72
58223;BME280;44020;50.890;15.796;2023-10-08T06:48:18;98150.93;;;10.00;99.73
58223;BME280;44020;50.890;15.796;2023-10-08T06:51:11;98157.21;;;9.98;99.67
58223;BME280;44020;50.890;15.796;2023-10-08T06:53:42;98161.58;;;9.99;99.71
58223;BME280;44020;50.890;15.796;2023-10-08T06:59:25;98165.23;;;10.01;99.81
58223;BME280;44020;50.890;15.796;2023-10-08T07:01:52;98165.30;;;10.03;99.79
58223;BME280;44020;50.890;15.796;2023-10-08T07:04:23;98171.06;;;10.01;99.39
58223;BME280;44020;50.890;15.796;2023-10-08T07:06:50;98164.98;;;9.99;99.46
58223;BME280;44020;50.890;15.796;2023-10-08T07:09:25;98168.71;;;9.99;99.47
58223;BME280;44020;50.890;15.796;2023-10-08T07:12:26;98174.33;;;10.00;99.81
58223;BME280;44020;50.890;15.796;2023-10-08T07:14:58;98174.23;;;10.02;99.90
58223;BME280;44020;50.890;15.796;2023-10-08T07:20:54;98187.80;;;10.01;99.92
58223;BME280;44020;50.890;15.796;2023-10-08T07:29:36;98211.45;;;10.00;99.89
58223;BME280;44020;50.890;15.796;2023-10-08T07:32:12;98216.85;;;10.01;99.84
58223;BME280;44020;50.890;15.796;2023-10-08T07:35:05;98224.13;;;10.02;99.79
58223;BME280;44020;50.890;15.796;2023-10-08T07:38:27;98228.47;;;9.94;99.90
58223;BME280;44020;50.890;15.796;2023-10-08T07:41:17;98250.52;;;9.94;100.00
58223;BME280;44020;50.890;15.796;2023-10-08T07:43:50;98257.86;;;9.87;100.00
58223;BME280;44020;50.890;15.796;2023-10-08T07:46:25;98254.38;;;9.85;100.00
58223;BME280;44020;50.890;15.796;2023-10-08T07:49:05;98253.74;;;9.87;100.00
58223;BME280;44020;50.890;15.796;2023-10-08T07:51:41;98246.39;;;9.89;100.00
58223;BME280;44020;50.890;15.796;2023-10-08T07:54:07;98257.50;;;9.93;100.00
58223;BME280;44020;50.890;15.796;2023-10-08T07:56:49;98258.27;;;9.95;100.00
58223;BME280;44020;50.890;15.796;2023-10-08T07:59:19;98263.91;;;9.98;100.00
58223;BME280;44020;50.890;15.796;2023-10-08T08:01:59;98263.99;;;10.03;100.00
58223;BME280;44020;50.890;15.796;2023-10-08T08:04:42;98270.39;;;10.09;100.00
58223;BME280;44020;50.890;15.796;2023-10-08T08:07:17;98261.02;;;10.17;100.00
58223;BME280;44020;50.890;15.796;2023-10-08T08:09:46;98259.83;;;10.22;100.00
58223;BME280;44020;50.890;15.796;2023-10-08T08:12:26;98259.08;;;10.26;100.00
58223;BME280;44020;50.890;15.796;2023-10-08T08:14:58;98257.55;;;10.31;100.00
58223;BME280;44020;50.890;15.796;2023-10-08T08:17:25;98256.73;;;10.36;100.00
58223;BME280;44020;50.890;15.796;2023-10-08T08:19:53;98259.79;;;10.38;100.00
58223;BME280;44020;50.890;15.796;2023-10-08T08:22:32;98265.58;;;10.37;100.00
58223;BME280;44020;50.890;15.796;2023-10-08T08:25:11;98276.46;;;10.39;100.00
58223;BME280;44020;50.890;15.796;2023-10-08T08:28:13;98279.58;;;10.40;100.00
58223;BME280;44020;50.890;15.796;2023-10-08T08:30:53;98287.16;;;10.44;100.00
58223;BME280;44020;50.890;15.796;2023-10-08T08:33:22;98294.73;;;10.48;100.00
58223;BME280;44020;50.890;15.796;2023-10-08T08:35:59;98298.76;;;10.55;100.00
58223;BME280;44020;50.890;15.796;2023-10-08T08:38:27;98303.42;;;10.63;100.00
58223;BME280;44020;50.890;15.796;2023-10-08T08:41:05;98307.55;;;10.71;100.00
58223;BME280;44020;50.890;15.796;2023-10-08T08:43:59;98307.83;;;10.75;99.81
58223;BME280;44020;50.890;15.796;2023-10-08T08:46:35;98305.05;;;10.77;99.41
58223;BME280;44020;50.890;15.796;2023-10-08T08:49:05;98312.67;;;10.74;98.43
58223;BME280;44020;50.890;15.796;2023-10-08T08:51:38;98317.40;;;10.70;98.34
58223;BME280;44020;50.890;15.796;2023-10-08T08:54:06;98324.67;;;10.68;98.04
58223;BME280;44020;50.890;15.796;2023-10-08T08:56:35;98326.15;;;10.69;98.32
58223;BME280;44020;50.890;15.796;2023-10-08T08:59:04;98324.76;;;10.69;97.63
58223;BME280;44020;50.890;15.796;2023-10-08T09:01:32;98329.02;;;10.69;97.41
58223;BME280;44020;50.890;15.796;2023-10-08T09:04:00;98327.66;;;10.71;97.21
58223;BME280;44020;50.890;15.796;2023-10-08T09:06:37;98324.17;;;10.72;97.12
58223;BME280;44020;50.890;15.796;2023-10-08T09:09:14;98326.00;;;10.74;96.70
58223;BME280;44020;50.890;15.796;2023-10-08T09:11:56;98332.13;;;10.73;96.08
58223;BME280;44020;50.890;15.796;2023-10-08T09:14:26;98332.03;;;10.69;95.93
58223;BME280;44020;50.890;15.796;2023-10-08T09:17:16;98337.72;;;10.69;95.81
58223;BME280;44020;50.890;15.796;2023-10-08T09:19:47;98338.69;;;10.71;95.94
58223;BME280;44020;50.890;15.796;2023-10-08T09:22:16;98341.23;;;10.73;95.90
58223;BME280;44020;50.890;15.796;2023-10-08T09:24:48;98349.77;;;10.78;96.00
58223;BME280;44020;50.890;15.796;2023-10-08T09:27:19;98356.55;;;10.89;95.97
58223;BME280;44020;50.890;15.796;2023-10-08T09:29:55;98361.98;;;10.96;95.35
58223;BME280;44020;50.890;15.796;2023-10-08T09:32:42;98360.92;;;11.02;95.21
58223;BME280;44020;50.890;15.796;2023-10-08T09:35:20;98370.98;;;11.12;93.93
58223;BME280;44020;50.890;15.796;2023-10-08T09:37:49;98369.86;;;11.21;94.17
58223;BME280;44020;50.890;15.796;2023-10-08T09:40:17;98369.90;;;11.35;92.67
58223;BME280;44020;50.890;15.796;2023-10-08T09:43:05;98370.51;;;11.48;92.95
58223;BME280;44020;50.890;15.796;2023-10-08T09:45:38;98373.88;;;11.60;91.46
58223;BME280;44020;50.890;15.796;2023-10-08T09:48:15;98376.88;;;11.68;90.25
58223;BME280;44020;50.890;15.796;2023-10-08T09:51:23;98380.27;;;11.68;88.75
58223;BME280;44020;50.890;15.796;2023-10-08T09:56:59;98397.94;;;11.39;88.49
58223;BME280;44020;50.890;15.796;2023-10-08T09:59:41;98399.89;;;11.28;88.44
58223;BME280;44020;50.890;15.796;2023-10-08T10:02:14;98402.56;;;11.31;88.66
58223;BME280;44020;50.890;15.796;2023-10-08T10:05:31;98408.36;;;11.40;88.40
58223;BME280;44020;50.890;15.796;2023-10-08T10:07:44;98410.08;;;11.53;88.03
58223;BME280;44020;50.890;15.796;2023-10-08T10:10:32;98411.26;;;11.62;85.82
58223;BME280;44020;50.890;15.796;2023-10-08T10:13:27;98410.18;;;11.77;85.46
58223;BME280;44020;50.890;15.796;2023-10-08T10:19:35;98417.14;;;11.91;81.10
58223;BME280;44020;50.890;15.796;2023-10-08T10:22:11;98411.92;;;11.92;82.01
58223;BME280;44020;50.890;15.796;2023-10-08T10:24:41;98412.13;;;11.97;81.75
58223;BME280;44020;50.890;15.796;2023-10-08T10:27:24;98422.88;;;11.93;81.48
58223;BME280;44020;50.890;15.796;2023-10-08T10:30:01;98427.20;;;11.89;80.47
58223;BME280;44020;50.890;15.796;2023-10-08T10:32:55;98428.80;;;11.86;80.54
58223;BME280;44020;50.890;15.796;2023-10-08T10:35:26;98433.63;;;11.95;80.12
58223;BME280;44020;50.890;15.796;2023-10-08T10:37:54;98429.02;;;12.02;79.17
58223;BME280;44020;50.890;15.796;2023-10-08T10:46:37;98421.02;;;12.35;76.00
58223;BME280;44020;50.890;15.796;2023-10-08T10:49:19;98424.89;;;12.39;73.99
58223;BME280;44020;50.890;15.796;2023-10-08T10:52:03;98422.47;;;12.27;72.52
58223;BME280;44020;50.890;15.796;2023-10-08T10:55:14;98422.79;;;12.22;71.70
58223;BME280;44020;50.890;15.796;2023-10-08T11:00:51;98430.06;;;12.44;70.74
58223;BME280;44020;50.890;15.796;2023-10-08T11:03:43;98431.49;;;12.52;71.22
58223;BME280;44020;50.890;15.796;2023-10-08T11:06:11;98435.58;;;12.49;69.85
58223;BME280;44020;50.890;15.796;2023-10-08T11:08:45;98439.87;;;12.36;68.07
58223;BME280;44020;50.890;15.796;2023-10-08T11:17:49;98443.52;;;12.37;61.53
58223;BME280;44020;50.890;15.796;2023-10-08T11:20:29;98451.40;;;12.42;59.71
58223;BME280;44020;50.890;15.796;2023-10-08T11:26:26;98455.97;;;12.54;61.22
58223;BME280;44020;50.890;15.796;2023-10-08T11:29:05;98458.52;;;12.58;60.42
58223;BME280;44020;50.890;15.796;2023-10-08T11:31:44;98456.84;;;12.59;59.22
58223;BME280;44020;50.890;15.796;2023-10-08T11:34:37;98446.44;;;12.61;59.33
58223;BME280;44020;50.890;15.796;2023-10-08T11:37:32;98439.93;;;12.72;59.84
58223;BME280;44020;50.890;15.796;2023-10-08T11:40:09;98442.28;;;12.77;59.16
58223;BME280;44020;50.890;15.796;2023-10-08T11:43:20;98436.80;;;12.79;59.31
58223;BME280;44020;50.890;15.796;2023-10-08T11:45:51;98437.79;;;12.85;59.95
58223;BME280;44020;50.890;15.796;2023-10-08T11:51:05;98438.42;;;12.92;58.30
58223;BME280;44020;50.890;15.796;2023-10-08T11:53:40;98437.65;;;12.90;58.07
58223;BME280;44020;50.890;15.796;2023-10-08T11:56:39;98443.02;;;12.88;59.05
58223;BME280;44020;50.890;15.796;2023-10-08T11:59:06;98444.64;;;12.87;58.95
58223;BME280;44020;50.890;15.796;2023-10-08T12:02:16;98441.54;;;12.91;58.79
58223;BME280;44020;50.890;15.796;2023-10-08T12:04:46;98444.76;;;12.96;58.60
58223;BME280;44020;50.890;15.796;2023-10-08T12:07:14;98444.17;;;12.97;57.98
58223;BME280;44020;50.890;15.796;2023-10-08T12:23:24;98446.14;;;12.94;53.98
58223;BME280;44020;50.890;15.796;2023-10-08T12:26:06;98448.71;;;12.93;54.52
58223;BME280;44020;50.890;15.796;2023-10-08T12:35:14;98449.02;;;13.02;53.86
58223;BME280;44020;50.890;15.796;2023-10-08T12:44:02;98434.89;;;13.15;51.75
58223;BME280;44020;50.890;15.796;2023-10-08T12:46:24;98442.04;;;13.20;52.17
58223;BME280;44020;50.890;15.796;2023-10-08T12:49:03;98443.85;;;13.22;52.10
58223;BME280;44020;50.890;15.796;2023-10-08T12:51:30;98448.92;;;13.26;50.05
58223;BME280;44020;50.890;15.796;2023-10-08T12:54:14;98455.94;;;13.23;50.77
58223;BME280;44020;50.890;15.796;2023-10-08T12:56:48;98454.64;;;13.26;51.02
58223;BME280;44020;50.890;15.796;2023-10-08T13:00:10;98451.80;;;13.26;51.50
58223;BME280;44020;50.890;15.796;2023-10-08T13:02:36;98452.83;;;13.19;51.95
58223;BME280;44020;50.890;15.796;2023-10-08T13:05:05;98448.19;;;13.27;52.18
58223;BME280;44020;50.890;15.796;2023-10-08T13:07:50;98454.67;;;13.49;52.33
58223;BME280;44020;50.890;15.796;2023-10-08T13:13:35;98453.14;;;15.74;47.38
58223;BME280;44020;50.890;15.796;2023-10-08T13:16:17;98448.55;;;16.42;46.67
58223;BME280;44020;50.890;15.796;2023-10-08T13:18:48;98453.61;;;16.46;44.40
58223;BME280;44020;50.890;15.796;2023-10-08T13:21:18;98451.42;;;16.46;44.08
58223;BME280;44020;50.890;15.796;2023-10-08T13:23:46;98450.38;;;16.57;45.19
58223;BME280;44020;50.890;15.796;2023-10-08T13:26:23;98443.89;;;17.00;45.23
58223;BME280;44020;50.890;15.796;2023-10-08T13:28:56;98451.88;;;17.39;44.99
58223;BME280;44020;50.890;15.796;2023-10-08T13:31:29;98440.55;;;17.91;43.00
58223;BME280;44020;50.890;15.796;2023-10-08T13:36:49;98446.07;;;20.09;39.55
58223;BME280;44020;50.890;15.796;2023-10-08T13:39:20;98448.03;;;21.27;39.40
58223;BME280;44020;50.890;15.796;2023-10-08T13:42:08;98446.80;;;20.70;38.01
58223;BME280;44020;50.890;15.796;2023-10-08T13:44:54;98441.72;;;20.39;38.55
58223;BME280;44020;50.890;15.796;2023-10-08T13:47:46;98439.88;;;21.33;37.59
58223;BME280;44020;50.890;15.796;2023-10-08T13:50:16;98428.63;;;23.23;36.30
58223;BME280;44020;50.890;15.796;2023-10-08T13:52:57;98427.75;;;24.58;35.29
58223;BME280;44020;50.890;15.796;2023-10-08T13:55:38;98427.31;;;25.11;34.02
58223;BME280;44020;50.890;15.796;2023-10-08T13:58:16;98427.77;;;23.41;34.13
58223;BME280;44020;50.890;15.796;2023-10-08T14:01:05;98437.60;;;21.72;34.65
58223;BME280;44020;50.890;15.796;2023-10-08T14:03:48;98444.98;;;20.11;35.23
58223;BME280;44020;50.890;15.796;2023-10-08T14:06:23;98452.49;;;19.00;36.19
58223;BME280;44020;50.890;15.796;2023-10-08T14:08:53;98455.36;;;18.29;36.70
58223;BME280;44020;50.890;15.796;2023-10-08T14:12:09;98455.83;;;17.87;37.27
58223;BME280;44020;50.890;15.796;2023-10-08T14:18:31;98442.05;;;16.90;38.82
58223;BME280;44020;50.890;15.796;2023-10-08T14:24:06;98439.27;;;16.33;40.25
58223;BME280;44020;50.890;15.796;2023-10-08T14:26:51;98441.37;;;16.00;40.05
58223;BME280;44020;50.890;15.796;2023-10-08T14:29:19;98440.29;;;15.69;40.52
58223;BME280;44020;50.890;15.796;2023-10-08T14:32:07;98438.33;;;15.53;40.78
58223;BME280;44020;50.890;15.796;2023-10-08T14:34:38;98443.85;;;15.53;41.40
58223;BME280;44020;50.890;15.796;2023-10-08T14:37:49;98440.63;;;15.60;40.75
58223;BME280;44020;50.890;15.796;2023-10-08T14:40:33;98438.02;;;15.61;40.86
58223;BME280;44020;50.890;15.796;2023-10-08T14:43:18;98452.10;;;15.69;40.93
58223;BME280;44020;50.890;15.796;2023-10-08T14:45:51;98453.27;;;15.65;41.15
58223;BME280;44020;50.890;15.796;2023-10-08T14:48:24;98458.36;;;15.37;41.47
58223;BME280;44020;50.890;15.796;2023-10-08T14:53:46;98457.47;;;15.02;42.28
58223;BME280;44020;50.890;15.796;2023-10-08T15:06:59;98473.55;;;14.40;43.34
58223;BME280;44020;50.890;15.796;2023-10-08T15:09:24;98473.89;;;14.23;44.39
58223;BME280;44020;50.890;15.796;2023-10-08T15:11:59;98471.70;;;14.14;45.20
58223;BME280;44020;50.890;15.796;2023-10-08T15:14:26;98481.83;;;14.05;45.74
58223;BME280;44020;50.890;15.796;2023-10-08T15:17:04;98492.12;;;13.98;46.13
58223;BME280;44020;50.890;15.796;2023-10-08T15:19:54;98501.05;;;13.88;46.72
58223;BME280;44020;50.890;15.796;2023-10-08T15:22:33;98500.05;;;13.77;47.13
58223;BME280;44020;50.890;15.796;2023-10-08T15:25:05;98493.02;;;13.68;47.58
58223;BME280;44020;50.890;15.796;2023-10-08T15:27:40;98492.59;;;13.59;47.90
58223;BME280;44020;50.890;15.796;2023-10-08T15:30:12;98509.15;;;13.51;48.40
58223;BME280;44020;50.890;15.796;2023-10-08T15:32:43;98512.20;;;13.43;48.72
58223;BME280;44020;50.890;15.796;2023-10-08T15:35:20;98502.80;;;13.35;49.01
58223;BME280;44020;50.890;15.796;2023-10-08T15:38:06;98506.74;;;13.24;49.55
58223;BME280;44020;50.890;15.796;2023-10-08T15:40:32;98508.09;;;13.12;50.02
58223;BME280;44020;50.890;15.796;2023-10-08T15:43:20;98510.65;;;13.03;50.59
58223;BME280;44020;50.890;15.796;2023-10-08T15:45:47;98507.71;;;12.93;50.98
58223;BME280;44020;50.890;15.796;2023-10-08T15:48:35;98503.16;;;12.84;51.50
58223;BME280;44020;50.890;15.796;2023-10-08T15:51:04;98497.70;;;12.70;51.89
58223;BME280;44020;50.890;15.796;2023-10-08T15:53:34;98489.02;;;12.58;52.91
58223;BME280;44020;50.890;15.796;2023-10-08T15:56:13;98494.29;;;12.51;53.25
58223;BME280;44020;50.890;15.796;2023-10-08T15:59:14;98495.53;;;12.46;53.28
58223;BME280;44020;50.890;15.796;2023-10-08T16:01:55;98498.25;;;12.37;53.52
58223;BME280;44020;50.890;15.796;2023-10-08T16:04:25;98498.58;;;12.29;54.32
58223;BME280;44020;50.890;15.796;2023-10-08T16:06:55;98493.93;;;12.21;54.75
58223;BME280;44020;50.890;15.796;2023-10-08T16:09:42;98496.09;;;12.09;55.18
58223;BME280;44020;50.890;15.796;2023-10-08T16:12:09;98503.02;;;11.99;55.66
58223;BME280;44020;50.890;15.796;2023-10-08T16:14:39;98507.98;;;11.90;56.29
58223;BME280;44020;50.890;15.796;2023-10-08T16:17:10;98515.88;;;11.77;56.82
58223;BME280;44020;50.890;15.796;2023-10-08T16:19:51;98520.56;;;11.65;57.25
58223;BME280;44020;50.890;15.796;2023-10-08T16:22:23;98520.84;;;11.55;57.63